• Join FlightAware (Why Join?)
  • Login
  • US Flag 
10:35AM EST


 

Airport Tracker/Info


-or-


 

Live Flight TrackerFlight Track Log ✈ N9464M ✈ 28-Jun-2014 ✈ MYEF / GGT - KAPF

Flight Track Log - Related Links

Times and Time Zones

All times are in EDT time to prevent confusion due to time zone crossing. See the N9464M flight status page for this flight to view local times or setup timezone preferences in your user account.

Time Position Orientation Groundspeed Altitude Reporting Facility
EDT Latitude Longitude Course Direction KTS MPH feet Rate Location/Type
12:18PM 23.6297 -76.1153 292° West 112 129 6,000  Level Miami Center
12:19PM 23.6417 -76.1472 292° West 112 129 6,500 480 Climbing Miami Center
12:20PM 23.6544 -76.1792 294° West 112 129 7,100 540 Climbing Miami Center
12:21PM 23.6703 -76.2181 294° West 114 131 7,700 540 Climbing Miami Center
12:22PM 23.6817 -76.2522 290° West 114 131 8,300 360 Climbing Miami Center
12:23PM 23.6931 -76.2850 291° West 115 132 8,500 60 Climbing Miami Center
12:24PM 23.7164 -76.3242 303° West 135 155 8,500 -60 Level Miami Center
12:25PM 23.7439 -76.3606 310° West 148 170 8,400 -120 Descending Miami Center
12:26PM 23.7683 -76.4006 304° West 154 177 8,300 -180 Descending Miami Center
12:27PM 23.7906 -76.4550 294° West 157 181 8,100 -300 Descending Miami Center
12:28PM 23.8083 -76.5025 292° West 161 185 7,700 -180 Descending Miami Center
12:29PM 23.8289 -76.5486 296° West 165 190 7,800  Climbing Miami Center
12:30PM 23.8522 -76.5917 301° West 165 190 7,700 -60 Descending Miami Center
12:32PM 23.8717 -76.6369 295° West 165 190 7,700 60 Level Miami Center
12:33PM 23.8933 -76.6931 293° West 165 190 7,900 60 Climbing Miami Center
12:34PM 23.9122 -76.7386 294° West 166 191 7,900  Level Miami Center
12:35PM 23.9325 -76.7833 296° West 165 190 7,900 -60 Level Miami Center
12:36PM 23.9494 -76.8289 292° West 165 190 7,800  Descending Miami Center
12:37PM 23.9656 -76.8756 291° West 165 190 7,900  Climbing Miami Center
12:38PM 23.9822 -76.9214 292° West 165 190 7,900  Level Miami Center
12:39PM 24.0019 -76.9767 291° West 165 190 7,900  Level Miami Center
12:40PM 24.0186 -77.0222 292° West 165 190 7,900  Level Miami Center
12:41PM 24.0350 -77.0686 291° West 165 190 7,900  Level Miami Center
12:42PM 24.0528 -77.1142 293° West 164 189 7,900  Level Miami Center
12:43PM 24.0706 -77.1603 293° West 164 189 7,900  Level Miami Center
12:44PM 24.0867 -77.2072 291° West 164 189 7,900  Level Miami Center
12:45PM 24.1061 -77.2631 291° West 164 189 7,900  Level Miami Center
12:46PM 24.1228 -77.3097 291° West 164 189 8,000  Climbing Miami Center
12:47PM 24.1389 -77.3567 291° West 164 189 7,900 -60 Descending Miami Center
12:48PM 24.1550 -77.4025 291° West 164 189 7,900  Level Miami Center
12:49PM 24.1794 -77.4431 303° West 163 188 7,900  Level Miami Center
12:50PM 24.2189 -77.4869 315° West 163 188 8,000  Climbing Miami Center
12:51PM 24.2494 -77.5247 312° West 163 188 8,000  Level Miami Center
12:52PM 24.2781 -77.5633 309° West 163 188 8,000 -60 Level Miami Center
12:53PM 24.3072 -77.6025 309° West 163 188 7,900 -60 Descending Miami Center
12:54PM 24.3375 -77.6433 309° West 166 191 7,900 -60 Level Miami Center
12:55PM 24.3672 -77.6831 309° West 167 192 7,800  Descending Miami Center
12:56PM 24.4047 -77.7294 312° West 167 192 7,900  Climbing Miami Center
12:57PM 24.4344 -77.7675 311° West 167 192 7,900  Level Miami Center
12:59PM 24.4639 -77.8058 310° West 167 192 7,900  Level Miami Center
01:00PM 24.4908 -77.8461 306° West 167 192 8,000  Climbing Miami Center
01:12PM 24.9058 -78.3161 282° West 230 265 7,900 -60 Descending Miami Center
01:13PM 24.9204 -78.3237 311° West  Level FlightAware Approximate
01:13PM 24.9361 -78.3525 313° West 165 190 7,900  Level Miami Center
01:14PM 24.9511 -78.3633 311° West  Level FlightAware Approximate
01:15PM 24.9717 -78.4084 282° West  Level FlightAware Approximate
01:15PM 24.9736 -78.3928 316° Northwest 165 190 7,900  Level Miami Center
01:16PM 24.9819 -78.4593 282° West  Level FlightAware Approximate
01:16PM 24.9872 -78.4664 282° West 194 223 7,900  Level Miami Center
01:17PM 24.9921 -78.5102 282° West  Level FlightAware Approximate
01:17PM 25.0017 -78.5147 288° West 171 197 7,900  Level Miami Center
01:18PM 25.0023 -78.5611 282° West  Level FlightAware Approximate
01:18PM 25.0108 -78.5661 281° West 171 197 7,900  Level Miami Center
01:19PM 25.0206 -78.6164 282° West 170 196 8,000  Climbing Miami Center
01:20PM 25.0347 -78.6764 285° West 170 196 8,000  Level Miami Center
01:21PM 25.0450 -78.7269 283° West 170 196 8,000  Level Miami Center
01:22PM 25.0542 -78.7772 281° West 170 196 8,000  Level Miami Center
01:23PM 25.0592 -78.8292 276° West 170 196 8,000 -60 Level Miami Center
01:24PM 25.0647 -78.8808 277° West 170 196 7,900  Descending Miami Center
01:25PM 25.0692 -78.9336 275° West 170 196 8,000  Climbing Miami Center
01:26PM 25.0769 -78.9958 278° West 170 196 8,000  Level Miami Center
01:27PM 25.0808 -79.0481 275° West 170 196 8,000 -60 Level Miami Center
01:28PM 25.0867 -79.0997 277° West 170 196 7,900 -60 Descending Miami Center
01:29PM 25.0894 -79.1539 273° West 170 196 7,900  Level Miami Center
01:31PM 25.0931 -79.2056 274° West 170 196 7,900  Level Miami Center
01:32PM 25.0983 -79.2689 275° West 170 196 7,900  Level Miami Center
01:33PM 25.1006 -79.3214 273° West 171 197 7,900  Level Miami Center
01:34PM 25.1022 -79.3725 272° West 170 196 7,900 -60 Level Miami Center
01:35PM 25.1058 -79.4253 274° West 171 197 7,800  Descending Miami Center
01:36PM 25.1067 -79.4803 271° West 172 198 7,900  Climbing Miami Center
01:37PM 25.1047 -79.5428 268° West 172 198 7,900  Level Miami Center
01:38PM 25.1033 -79.5967 268° West 172 198 7,900  Level Miami Center
01:39PM 25.0989 -79.6514 265° West 174 200 7,900 -60 Level Miami Center
01:40PM 25.0950 -79.7056 265° West 175 201 7,800 -60 Descending Miami Center
01:41PM 25.0919 -79.7592 266° West 175 201 7,800  Level Miami Center
01:42PM 25.0872 -79.8247 265° West 176 203 7,800  Level Miami Center
01:43PM 25.0842 -79.8781 266° West 176 203 7,900  Climbing Miami Center
01:44PM 25.0800 -79.9322 265° West 176 203 7,900  Level Miami Center
01:45PM 25.0761 -79.9858 265° West 176 203 7,900  Level Miami Center
01:46PM 25.0711 -80.0386 264° West 176 203 7,900  Level Miami Center
01:47PM 25.0675 -80.0925 266° West 176 203 8,000  Climbing Miami Center
01:48PM 25.0614 -80.1575 264° West 176 203 8,000  Level Miami Center
01:49PM 25.0583 -80.2106 266° West 176 203 8,000 -60 Level Miami Center
01:50PM 25.0544 -80.2653 266° West 176 203 7,900 180 Descending Miami Center
01:51PM 25.0503 -80.3153 265° West 169 194 8,400 480 Climbing Miami Center
01:52PM 25.0614 -80.3600 285° West 159 183 9,000 480 Climbing Miami Center
01:53PM 25.0814 -80.4064 295° West 144 166 9,500 480 Climbing Miami Center
01:54PM 25.0956 -80.4442 293° West 137 158 10,000 240 Climbing Miami Center
01:55PM 25.1136 -80.4878 295° West 147 169 10,000  Level Miami Center
01:56PM 25.1400 -80.5289 305° West 159 183 10,000  Level Miami Center
01:58PM 25.1658 -80.5731 303° West 165 190 10,000 -60 Level Miami Center
01:59PM 25.1914 -80.6158 303° West 165 190 9,900 -60 Descending Miami Center
02:00PM 25.2239 -80.6678 305° West 168 193 9,900  Level Miami Center
02:01PM 25.2494 -80.7119 303° West 170 196 10,000  Climbing Miami Center
02:02PM 25.2742 -80.7564 302° West 170 196 10,000 -60 Level Miami Center
02:03PM 25.2925 -80.8053 293° West 172 198 9,900 -60 Descending Miami Center
02:04PM 25.3067 -80.8564 287° West 173 199 9,900  Level Miami Center
02:05PM 25.3211 -80.9072 287° West 173 199 10,000  Climbing Miami Center
02:06PM 25.3386 -80.9692 287° West 174 200 9,900 -60 Descending Miami Center
02:07PM 25.3544 -81.0197 289° West 174 200 9,900 -60 Level Miami Center
02:08PM 25.3711 -81.0703 290° West 174 200 9,800  Descending Miami Center
02:09PM 25.4014 -81.1092 311° West 168 193 9,900  Climbing Miami Center
02:10PM 25.4247 -81.1503 302° West 165 190 9,800 -480 Descending Miami Center
02:11PM 25.4561 -81.2089 301° West 176 203 9,000 -840 Descending Miami Center
02:12PM 25.4800 -81.2656 295° West 196 226 8,100 -840 Descending Miami Center
02:13PM 25.5053 -81.3211 297° West 198 228 7,300 -780 Descending Miami Center
02:14PM 25.5228 -81.3792 288° West 200 230 6,500 -780 Descending Miami Center
02:15PM 25.5572 -81.4281 308° West 208 239 5,800 -720 Descending Miami Center
02:16PM 25.6017 -81.4553 331° Northwest 193 222 5,100 -600 Descending Miami Center
02:17PM 25.6542 -81.4886 330° Northwest 187 215 4,600 -540 Descending Miami Center
02:18PM 25.7003 -81.5169 331° Northwest 182 209 4,000 -360 Descending Miami Center
02:19PM 25.7439 -81.5406 334° Northwest 176 203 3,900 -120 Descending Miami Center
02:20PM 25.7883 -81.5625 336° Northwest 167 192 3,800 -240 Descending Miami Center
02:21PM 25.8308 -81.5939 326° Northwest 168 193 3,500 -480 Descending Miami Center
02:22PM 25.8731 -81.6208 330° Northwest 175 201 2,900 -540 Descending Miami Center
02:23PM 25.9211 -81.6500 331° Northwest 179 206 2,400 -420 Descending Miami Center
02:25PM 25.9647 -81.6728 335° Northwest 178 205 2,100 -360 Descending Miami Center
02:26PM 26.0125 -81.6969 336° Northwest 177 204 1,700 -360 Descending Miami Center
02:27PM 26.0528 -81.7250 328° Northwest 176 203 1,400 -480 Descending Miami Center
02:28PM 26.0953 -81.7569 326° Northwest 174 200 800 -420 Descending Miami Center
02:29PM 26.1308 -81.7828 327° Northwest 145 167 600 -240 Descending Miami Center
02:30PM 26.1600 -81.8006 331° Northwest 126 145 300 -300 Descending Miami Center